sensor_id;sensor_type;location;lat;lon;timestamp;temperature;humidity
43679;DHT22;29279;50.858;4.392;2023-03-23T00:01:22;13.40;99.90
43679;DHT22;29279;50.858;4.392;2023-03-23T00:03:49;13.50;99.90
43679;DHT22;29279;50.858;4.392;2023-03-23T00:06:16;13.60;99.90
43679;DHT22;29279;50.858;4.392;2023-03-23T00:08:51;13.70;99.90
43679;DHT22;29279;50.858;4.392;2023-03-23T00:11:23;13.80;99.90
43679;DHT22;29279;50.858;4.392;2023-03-23T00:13:51;13.80;99.90
43679;DHT22;29279;50.858;4.392;2023-03-23T00:16:19;13.80;99.90
43679;DHT22;29279;50.858;4.392;2023-03-23T00:18:52;13.50;99.90
43679;DHT22;29279;50.858;4.392;2023-03-23T00:21:24;13.50;99.90
43679;DHT22;29279;50.858;4.392;2023-03-23T00:24:13;13.50;99.90
43679;DHT22;29279;50.858;4.392;2023-03-23T00:26:42;13.40;99.90
43679;DHT22;29279;50.858;4.392;2023-03-23T00:29:20;13.50;99.90
43679;DHT22;29279;50.858;4.392;2023-03-23T00:31:49;13.50;99.90
43679;DHT22;29279;50.858;4.392;2023-03-23T00:34:17;13.40;99.90
43679;DHT22;29279;50.858;4.392;2023-03-23T00:36:49;13.50;99.90
43679;DHT22;29279;50.858;4.392;2023-03-23T00:39:16;13.40;99.90
43679;DHT22;29279;50.858;4.392;2023-03-23T00:41:45;13.50;99.90
43679;DHT22;29279;50.858;4.392;2023-03-23T00:44:13;13.40;99.90
43679;DHT22;29279;50.858;4.392;2023-03-23T00:46:46;13.40;99.90
43679;DHT22;29279;50.858;4.392;2023-03-23T00:49:15;13.40;99.90
43679;DHT22;29279;50.858;4.392;2023-03-23T00:51:42;13.50;99.90
43679;DHT22;29279;50.858;4.392;2023-03-23T00:54:08;13.50;99.90
43679;DHT22;29279;50.858;4.392;2023-03-23T00:56:38;13.50;99.90
43679;DHT22;29279;50.858;4.392;2023-03-23T00:59:07;13.40;99.90
43679;DHT22;29279;50.858;4.392;2023-03-23T01:01:33;13.40;99.90
43679;DHT22;29279;50.858;4.392;2023-03-23T01:04:00;13.40;99.90
43679;DHT22;29279;50.858;4.392;2023-03-23T01:06:30;13.40;99.90
43679;DHT22;29279;50.858;4.392;2023-03-23T01:08:57;13.40;99.90
43679;DHT22;29279;50.858;4.392;2023-03-23T01:11:24;13.40;99.90
43679;DHT22;29279;50.858;4.392;2023-03-23T01:13:50;13.40;99.90
43679;DHT22;29279;50.858;4.392;2023-03-23T01:16:16;13.40;99.90
43679;DHT22;29279;50.858;4.392;2023-03-23T01:18:42;13.40;99.90
43679;DHT22;29279;50.858;4.392;2023-03-23T01:21:11;13.40;99.90
43679;DHT22;29279;50.858;4.392;2023-03-23T01:23:37;13.40;99.90
43679;DHT22;29279;50.858;4.392;2023-03-23T01:26:15;13.40;99.90
43679;DHT22;29279;50.858;4.392;2023-03-23T01:28:43;13.50;99.90
43679;DHT22;29279;50.858;4.392;2023-03-23T01:31:11;13.40;99.90
43679;DHT22;29279;50.858;4.392;2023-03-23T01:33:38;13.30;99.90
43679;DHT22;29279;50.858;4.392;2023-03-23T01:36:07;13.30;99.90
43679;DHT22;29279;50.858;4.392;2023-03-23T01:38:34;13.30;99.90
43679;DHT22;29279;50.858;4.392;2023-03-23T01:41:00;13.40;99.90
43679;DHT22;29279;50.858;4.392;2023-03-23T01:43:26;13.40;99.90
43679;DHT22;29279;50.858;4.392;2023-03-23T01:45:52;13.40;99.90
43679;DHT22;29279;50.858;4.392;2023-03-23T01:48:29;13.40;99.90
43679;DHT22;29279;50.858;4.392;2023-03-23T01:51:04;13.40;99.90
43679;DHT22;29279;50.858;4.392;2023-03-23T01:53:37;13.40;99.90
43679;DHT22;29279;50.858;4.392;2023-03-23T01:56:04;13.30;99.90
43679;DHT22;29279;50.858;4.392;2023-03-23T01:58:33;13.30;99.90
43679;DHT22;29279;50.858;4.392;2023-03-23T02:01:12;13.30;99.90
43679;DHT22;29279;50.858;4.392;2023-03-23T02:03:42;13.20;99.90
43679;DHT22;29279;50.858;4.392;2023-03-23T02:06:09;13.40;99.90
43679;DHT22;29279;50.858;4.392;2023-03-23T02:08:35;13.40;99.90
43679;DHT22;29279;50.858;4.392;2023-03-23T02:11:01;13.30;99.90
43679;DHT22;29279;50.858;4.392;2023-03-23T02:13:27;13.30;99.90
43679;DHT22;29279;50.858;4.392;2023-03-23T02:19:03;13.20;99.90
43679;DHT22;29279;50.858;4.392;2023-03-23T02:27:33;13.10;99.90
43679;DHT22;29279;50.858;4.392;2023-03-23T02:30:11;13.10;99.90
43679;DHT22;29279;50.858;4.392;2023-03-23T02:32:44;13.10;99.90
43679;DHT22;29279;50.858;4.392;2023-03-23T02:35:24;13.10;99.90
43679;DHT22;29279;50.858;4.392;2023-03-23T02:37:58;13.10;99.90
43679;DHT22;29279;50.858;4.392;2023-03-23T02:40:32;13.00;99.90
43679;DHT22;29279;50.858;4.392;2023-03-23T02:42:59;13.10;99.90
43679;DHT22;29279;50.858;4.392;2023-03-23T02:45:27;13.10;99.90
43679;DHT22;29279;50.858;4.392;2023-03-23T02:47:55;13.00;99.90
43679;DHT22;29279;50.858;4.392;2023-03-23T02:50:23;13.10;99.90
43679;DHT22;29279;50.858;4.392;2023-03-23T02:52:52;13.10;99.90
43679;DHT22;29279;50.858;4.392;2023-03-23T02:55:18;13.10;99.90
43679;DHT22;29279;50.858;4.392;2023-03-23T02:57:46;13.10;99.90
43679;DHT22;29279;50.858;4.392;2023-03-23T03:00:14;13.00;99.90
43679;DHT22;29279;50.858;4.392;2023-03-23T03:02:43;13.00;99.90
43679;DHT22;29279;50.858;4.392;2023-03-23T03:10:55;13.00;99.90
43679;DHT22;29279;50.858;4.392;2023-03-23T03:16:33;13.10;99.90
43679;DHT22;29279;50.858;4.392;2023-03-23T03:19:22;13.10;99.90
43679;DHT22;29279;50.858;4.392;2023-03-23T03:21:51;13.10;99.90
43679;DHT22;29279;50.858;4.392;2023-03-23T03:24:19;13.10;99.90
43679;DHT22;29279;50.858;4.392;2023-03-23T03:26:47;13.10;99.90
43679;DHT22;29279;50.858;4.392;2023-03-23T03:29:20;13.10;99.90
43679;DHT22;29279;50.858;4.392;2023-03-23T03:31:49;13.10;99.90
43679;DHT22;29279;50.858;4.392;2023-03-23T03:34:17;13.10;99.90
43679;DHT22;29279;50.858;4.392;2023-03-23T03:36:45;13.10;99.90
43679;DHT22;29279;50.858;4.392;2023-03-23T03:39:13;13.10;99.90
43679;DHT22;29279;50.858;4.392;2023-03-23T03:41:40;13.00;99.90
43679;DHT22;29279;50.858;4.392;2023-03-23T03:44:06;13.00;99.90
43679;DHT22;29279;50.858;4.392;2023-03-23T03:46:34;13.00;99.90
43679;DHT22;29279;50.858;4.392;2023-03-23T03:49:01;13.00;99.90
43679;DHT22;29279;50.858;4.392;2023-03-23T03:51:28;13.00;99.90
43679;DHT22;29279;50.858;4.392;2023-03-23T03:53:55;13.00;99.90
43679;DHT22;29279;50.858;4.392;2023-03-23T03:56:21;13.00;99.90
43679;DHT22;29279;50.858;4.392;2023-03-23T03:58:48;13.00;99.90
43679;DHT22;29279;50.858;4.392;2023-03-23T04:01:15;13.10;99.90
43679;DHT22;29279;50.858;4.392;2023-03-23T04:03:41;13.00;99.90
43679;DHT22;29279;50.858;4.392;2023-03-23T04:06:09;13.00;99.90
43679;DHT22;29279;50.858;4.392;2023-03-23T04:08:36;13.00;99.90
43679;DHT22;29279;50.858;4.392;2023-03-23T04:11:07;13.00;99.90
43679;DHT22;29279;50.858;4.392;2023-03-23T04:13:33;13.00;99.90
43679;DHT22;29279;50.858;4.392;2023-03-23T04:15:59;12.90;99.90
43679;DHT22;29279;50.858;4.392;2023-03-23T04:18:25;12.90;99.90
43679;DHT22;29279;50.858;4.392;2023-03-23T04:20:51;13.00;99.90
43679;DHT22;29279;50.858;4.392;2023-03-23T04:23:19;13.00;99.90
43679;DHT22;29279;50.858;4.392;2023-03-23T04:25:47;13.00;99.90
43679;DHT22;29279;50.858;4.392;2023-03-23T04:28:14;12.90;99.90
43679;DHT22;29279;50.858;4.392;2023-03-23T04:30:42;12.90;99.90
43679;DHT22;29279;50.858;4.392;2023-03-23T04:33:10;12.80;99.90
43679;DHT22;29279;50.858;4.392;2023-03-23T04:35:42;12.80;99.90
43679;DHT22;29279;50.858;4.392;2023-03-23T04:38:12;12.80;99.90
43679;DHT22;29279;50.858;4.392;2023-03-23T04:40:39;12.90;99.90
43679;DHT22;29279;50.858;4.392;2023-03-23T04:43:05;12.90;99.90
43679;DHT22;29279;50.858;4.392;2023-03-23T04:45:33;12.90;99.90
43679;DHT22;29279;50.858;4.392;2023-03-23T04:47:59;12.90;99.90
43679;DHT22;29279;50.858;4.392;2023-03-23T04:50:28;12.90;99.90
43679;DHT22;29279;50.858;4.392;2023-03-23T04:52:56;12.90;99.90
43679;DHT22;29279;50.858;4.392;2023-03-23T04:55:25;12.90;99.90
43679;DHT22;29279;50.858;4.392;2023-03-23T04:57:51;12.80;99.90
43679;DHT22;29279;50.858;4.392;2023-03-23T05:00:17;12.70;99.90
43679;DHT22;29279;50.858;4.392;2023-03-23T05:02:44;12.70;99.90
43679;DHT22;29279;50.858;4.392;2023-03-23T05:05:13;12.60;99.90
43679;DHT22;29279;50.858;4.392;2023-03-23T05:07:39;12.70;99.90
43679;DHT22;29279;50.858;4.392;2023-03-23T05:10:06;12.60;99.90
43679;DHT22;29279;50.858;4.392;2023-03-23T05:12:33;12.70;99.90
43679;DHT22;29279;50.858;4.392;2023-03-23T05:14:59;12.70;99.90
43679;DHT22;29279;50.858;4.392;2023-03-23T05:17:25;12.70;99.90
43679;DHT22;29279;50.858;4.392;2023-03-23T05:19:51;12.70;99.90
43679;DHT22;29279;50.858;4.392;2023-03-23T05:22:19;12.70;99.90
43679;DHT22;29279;50.858;4.392;2023-03-23T05:24:46;12.70;99.90
43679;DHT22;29279;50.858;4.392;2023-03-23T05:27:12;12.70;99.90
43679;DHT22;29279;50.858;4.392;2023-03-23T05:29:40;12.70;99.90
43679;DHT22;29279;50.858;4.392;2023-03-23T05:32:07;12.80;99.90
43679;DHT22;29279;50.858;4.392;2023-03-23T05:34:34;12.80;99.90
43679;DHT22;29279;50.858;4.392;2023-03-23T05:37:01;12.80;99.90
43679;DHT22;29279;50.858;4.392;2023-03-23T05:39:29;12.80;99.90
43679;DHT22;29279;50.858;4.392;2023-03-23T05:41:55;12.90;99.90
43679;DHT22;29279;50.858;4.392;2023-03-23T05:44:21;12.80;99.90
43679;DHT22;29279;50.858;4.392;2023-03-23T05:46:47;12.90;99.90
43679;DHT22;29279;50.858;4.392;2023-03-23T05:49:14;12.80;99.90
43679;DHT22;29279;50.858;4.392;2023-03-23T05:51:42;12.90;99.90
43679;DHT22;29279;50.858;4.392;2023-03-23T05:54:07;12.90;99.90
43679;DHT22;29279;50.858;4.392;2023-03-23T05:56:34;12.90;99.90
43679;DHT22;29279;50.858;4.392;2023-03-23T05:59:00;12.90;99.90
43679;DHT22;29279;50.858;4.392;2023-03-23T06:01:26;12.90;99.90
43679;DHT22;29279;50.858;4.392;2023-03-23T06:03:52;12.80;99.90
43679;DHT22;29279;50.858;4.392;2023-03-23T06:06:20;12.80;99.90
43679;DHT22;29279;50.858;4.392;2023-03-23T06:08:46;12.80;99.90
43679;DHT22;29279;50.858;4.392;2023-03-23T06:11:14;12.80;99.90
43679;DHT22;29279;50.858;4.392;2023-03-23T06:13:40;12.90;99.90
43679;DHT22;29279;50.858;4.392;2023-03-23T06:16:06;12.90;99.90
43679;DHT22;29279;50.858;4.392;2023-03-23T06:18:31;12.90;99.90
43679;DHT22;29279;50.858;4.392;2023-03-23T06:20:59;12.80;99.90
43679;DHT22;29279;50.858;4.392;2023-03-23T06:23:26;12.80;99.90
43679;DHT22;29279;50.858;4.392;2023-03-23T06:26:00;12.80;99.90
43679;DHT22;29279;50.858;4.392;2023-03-23T06:28:26;12.70;99.90
43679;DHT22;29279;50.858;4.392;2023-03-23T06:30:52;12.80;99.90
43679;DHT22;29279;50.858;4.392;2023-03-23T06:33:18;12.80;99.90
43679;DHT22;29279;50.858;4.392;2023-03-23T06:35:44;12.80;99.90
43679;DHT22;29279;50.858;4.392;2023-03-23T06:38:10;12.70;99.90
43679;DHT22;29279;50.858;4.392;2023-03-23T06:40:36;12.70;99.90
43679;DHT22;29279;50.858;4.392;2023-03-23T06:43:03;12.80;99.90
43679;DHT22;29279;50.858;4.392;2023-03-23T06:45:29;12.90;99.90
43679;DHT22;29279;50.858;4.392;2023-03-23T06:47:56;13.00;99.90
43679;DHT22;29279;50.858;4.392;2023-03-23T06:50:22;12.90;99.90
43679;DHT22;29279;50.858;4.392;2023-03-23T06:52:49;12.80;99.90
43679;DHT22;29279;50.858;4.392;2023-03-23T06:55:16;12.60;99.90
43679;DHT22;29279;50.858;4.392;2023-03-23T06:57:43;12.40;99.90
43679;DHT22;29279;50.858;4.392;2023-03-23T07:00:10;12.30;99.90
43679;DHT22;29279;50.858;4.392;2023-03-23T07:02:42;12.10;99.90
43679;DHT22;29279;50.858;4.392;2023-03-23T07:05:09;11.90;99.90
43679;DHT22;29279;50.858;4.392;2023-03-23T07:07:36;11.80;99.90
43679;DHT22;29279;50.858;4.392;2023-03-23T07:10:04;11.80;99.90
43679;DHT22;29279;50.858;4.392;2023-03-23T07:12:29;11.80;99.90
43679;DHT22;29279;50.858;4.392;2023-03-23T07:14:55;11.60;99.90
43679;DHT22;29279;50.858;4.392;2023-03-23T07:17:21;11.30;99.90
43679;DHT22;29279;50.858;4.392;2023-03-23T07:19:47;11.10;99.90
43679;DHT22;29279;50.858;4.392;2023-03-23T07:22:12;11.10;99.90
43679;DHT22;29279;50.858;4.392;2023-03-23T07:24:38;11.00;99.90
43679;DHT22;29279;50.858;4.392;2023-03-23T07:27:04;11.00;99.90
43679;DHT22;29279;50.858;4.392;2023-03-23T07:29:29;10.90;99.90
43679;DHT22;29279;50.858;4.392;2023-03-23T07:31:56;11.00;99.90
43679;DHT22;29279;50.858;4.392;2023-03-23T07:34:22;11.10;99.90
43679;DHT22;29279;50.858;4.392;2023-03-23T07:36:48;11.20;99.90
43679;DHT22;29279;50.858;4.392;2023-03-23T07:39:14;11.20;99.90
43679;DHT22;29279;50.858;4.392;2023-03-23T07:41:40;11.20;99.90
43679;DHT22;29279;50.858;4.392;2023-03-23T07:44:06;11.10;99.90
43679;DHT22;29279;50.858;4.392;2023-03-23T07:46:32;11.40;99.90
43679;DHT22;29279;50.858;4.392;2023-03-23T07:48:58;11.40;99.90
43679;DHT22;29279;50.858;4.392;2023-03-23T07:51:24;11.40;99.90
43679;DHT22;29279;50.858;4.392;2023-03-23T07:53:50;11.50;99.90
43679;DHT22;29279;50.858;4.392;2023-03-23T07:56:17;11.70;99.90
43679;DHT22;29279;50.858;4.392;2023-03-23T07:58:47;11.80;99.90
43679;DHT22;29279;50.858;4.392;2023-03-23T08:01:14;11.80;99.90
43679;DHT22;29279;50.858;4.392;2023-03-23T08:03:40;11.90;99.90
43679;DHT22;29279;50.858;4.392;2023-03-23T08:06:06;12.00;99.90
43679;DHT22;29279;50.858;4.392;2023-03-23T08:08:32;11.90;99.90
43679;DHT22;29279;50.858;4.392;2023-03-23T08:10:58;11.90;99.90
43679;DHT22;29279;50.858;4.392;2023-03-23T08:13:24;11.80;99.90
43679;DHT22;29279;50.858;4.392;2023-03-23T08:15:50;11.70;99.90
43679;DHT22;29279;50.858;4.392;2023-03-23T08:18:16;11.50;99.90
43679;DHT22;29279;50.858;4.392;2023-03-23T08:20:43;11.40;99.90
43679;DHT22;29279;50.858;4.392;2023-03-23T08:23:10;11.30;99.90
43679;DHT22;29279;50.858;4.392;2023-03-23T08:25:36;11.30;99.90
43679;DHT22;29279;50.858;4.392;2023-03-23T08:28:02;11.20;99.90
43679;DHT22;29279;50.858;4.392;2023-03-23T08:30:29;11.00;99.90
43679;DHT22;29279;50.858;4.392;2023-03-23T08:32:56;10.90;99.90
43679;DHT22;29279;50.858;4.392;2023-03-23T08:35:22;10.90;99.90
43679;DHT22;29279;50.858;4.392;2023-03-23T08:37:49;10.90;99.90
43679;DHT22;29279;50.858;4.392;2023-03-23T08:40:20;10.90;99.90
43679;DHT22;29279;50.858;4.392;2023-03-23T08:42:48;10.90;99.90
43679;DHT22;29279;50.858;4.392;2023-03-23T08:45:17;10.70;99.90
43679;DHT22;29279;50.858;4.392;2023-03-23T08:47:43;10.70;99.90
43679;DHT22;29279;50.858;4.392;2023-03-23T08:50:12;10.60;99.90
43679;DHT22;29279;50.858;4.392;2023-03-23T08:52:38;10.70;99.90
43679;DHT22;29279;50.858;4.392;2023-03-23T08:55:05;10.80;99.90
43679;DHT22;29279;50.858;4.392;2023-03-23T08:57:34;11.00;99.90
43679;DHT22;29279;50.858;4.392;2023-03-23T09:00:05;11.10;99.90
43679;DHT22;29279;50.858;4.392;2023-03-23T09:02:41;11.20;99.90
43679;DHT22;29279;50.858;4.392;2023-03-23T09:05:08;11.40;99.90
43679;DHT22;29279;50.858;4.392;2023-03-23T09:07:37;11.50;99.90
43679;DHT22;29279;50.858;4.392;2023-03-23T09:10:03;11.50;99.90
43679;DHT22;29279;50.858;4.392;2023-03-23T09:12:29;11.60;99.90
43679;DHT22;29279;50.858;4.392;2023-03-23T09:14:55;11.60;99.90
43679;DHT22;29279;50.858;4.392;2023-03-23T09:17:21;11.60;99.90
43679;DHT22;29279;50.858;4.392;2023-03-23T09:19:47;11.50;99.90
43679;DHT22;29279;50.858;4.392;2023-03-23T09:22:12;11.50;99.90
43679;DHT22;29279;50.858;4.392;2023-03-23T09:24:39;11.60;99.90
43679;DHT22;29279;50.858;4.392;2023-03-23T09:27:05;11.50;99.90
43679;DHT22;29279;50.858;4.392;2023-03-23T09:29:30;11.50;99.90
43679;DHT22;29279;50.858;4.392;2023-03-23T09:31:56;11.50;99.90
43679;DHT22;29279;50.858;4.392;2023-03-23T09:34:22;11.40;99.90
43679;DHT22;29279;50.858;4.392;2023-03-23T09:36:48;11.50;99.90
43679;DHT22;29279;50.858;4.392;2023-03-23T09:39:14;11.60;99.90
43679;DHT22;29279;50.858;4.392;2023-03-23T09:41:51;11.60;99.90
43679;DHT22;29279;50.858;4.392;2023-03-23T09:44:24;12.20;99.90
43679;DHT22;29279;50.858;4.392;2023-03-23T09:47:16;12.90;99.90
43679;DHT22;29279;50.858;4.392;2023-03-23T09:50:17;13.90;99.90
43679;DHT22;29279;50.858;4.392;2023-03-23T09:52:56;14.40;99.90
43679;DHT22;29279;50.858;4.392;2023-03-23T09:55:24;14.50;99.90
43679;DHT22;29279;50.858;4.392;2023-03-23T09:58:20;14.60;99.90
43679;DHT22;29279;50.858;4.392;2023-03-23T10:03:39;14.30;99.90
43679;DHT22;29279;50.858;4.392;2023-03-23T10:06:07;14.30;99.90
43679;DHT22;29279;50.858;4.392;2023-03-23T10:08:33;14.20;99.90
43679;DHT22;29279;50.858;4.392;2023-03-23T10:14:25;13.90;99.90
43679;DHT22;29279;50.858;4.392;2023-03-23T10:17:12;13.90;99.90
43679;DHT22;29279;50.858;4.392;2023-03-23T10:22:52;14.10;99.90
43679;DHT22;29279;50.858;4.392;2023-03-23T10:25:25;14.10;99.90
43679;DHT22;29279;50.858;4.392;2023-03-23T10:28:01;14.20;99.90
43679;DHT22;29279;50.858;4.392;2023-03-23T10:30:36;14.10;99.90
43679;DHT22;29279;50.858;4.392;2023-03-23T10:33:23;13.90;99.90
43679;DHT22;29279;50.858;4.392;2023-03-23T10:38:26;13.90;99.90
43679;DHT22;29279;50.858;4.392;2023-03-23T10:40:58;14.10;99.90
43679;DHT22;29279;50.858;4.392;2023-03-23T10:43:25;13.90;99.90
43679;DHT22;29279;50.858;4.392;2023-03-23T10:46:02;13.70;99.90
43679;DHT22;29279;50.858;4.392;2023-03-23T10:48:33;13.40;99.90
43679;DHT22;29279;50.858;4.392;2023-03-23T10:51:03;13.70;99.90
43679;DHT22;29279;50.858;4.392;2023-03-23T10:53:38;14.10;99.90
43679;DHT22;29279;50.858;4.392;2023-03-23T10:56:17;14.40;99.90
43679;DHT22;29279;50.858;4.392;2023-03-23T10:58:44;14.50;99.90
43679;DHT22;29279;50.858;4.392;2023-03-23T11:01:11;14.40;99.90
43679;DHT22;29279;50.858;4.392;2023-03-23T11:03:48;14.50;99.90
43679;DHT22;29279;50.858;4.392;2023-03-23T11:06:27;14.50;99.90
43679;DHT22;29279;50.858;4.392;2023-03-23T11:09:14;14.70;99.90
43679;DHT22;29279;50.858;4.392;2023-03-23T11:11:52;15.20;99.90
43679;DHT22;29279;50.858;4.392;2023-03-23T11:14:38;16.10;99.90
43679;DHT22;29279;50.858;4.392;2023-03-23T11:17:18;16.10;99.90
43679;DHT22;29279;50.858;4.392;2023-03-23T11:19:46;15.60;99.90
43679;DHT22;29279;50.858;4.392;2023-03-23T11:22:25;15.00;99.90
43679;DHT22;29279;50.858;4.392;2023-03-23T11:24:58;14.90;99.90
43679;DHT22;29279;50.858;4.392;2023-03-23T11:27:27;14.80;99.90
43679;DHT22;29279;50.858;4.392;2023-03-23T11:29:59;14.90;99.90
43679;DHT22;29279;50.858;4.392;2023-03-23T11:32:28;15.30;99.90
43679;DHT22;29279;50.858;4.392;2023-03-23T11:35:00;16.20;99.90
43679;DHT22;29279;50.858;4.392;2023-03-23T11:37:34;18.60;99.90
43679;DHT22;29279;50.858;4.392;2023-03-23T11:42:45;17.80;99.90
43679;DHT22;29279;50.858;4.392;2023-03-23T11:46:01;17.90;99.90
43679;DHT22;29279;50.858;4.392;2023-03-23T11:53:55;18.70;99.90
43679;DHT22;29279;50.858;4.392;2023-03-23T11:58:57;17.90;99.90
43679;DHT22;29279;50.858;4.392;2023-03-23T12:01:46;18.20;99.90
43679;DHT22;29279;50.858;4.392;2023-03-23T12:07:54;18.30;99.90
43679;DHT22;29279;50.858;4.392;2023-03-23T12:26:34;19.90;99.90
43679;DHT22;29279;50.858;4.392;2023-03-23T12:34:48;19.40;99.90
43679;DHT22;29279;50.858;4.392;2023-03-23T12:40:09;20.40;99.90
43679;DHT22;29279;50.858;4.392;2023-03-23T12:43:11;20.40;99.90
43679;DHT22;29279;50.858;4.392;2023-03-23T12:49:13;20.90;99.90
43679;DHT22;29279;50.858;4.392;2023-03-23T12:51:59;19.30;99.90
43679;DHT22;29279;50.858;4.392;2023-03-23T13:08:21;16.50;99.90
43679;DHT22;29279;50.858;4.392;2023-03-23T13:10:50;17.20;99.90
43679;DHT22;29279;50.858;4.392;2023-03-23T13:13:25;18.00;99.90
43679;DHT22;29279;50.858;4.392;2023-03-23T13:15:54;17.50;99.90
43679;DHT22;29279;50.858;4.392;2023-03-23T13:20:58;16.90;99.90
43679;DHT22;29279;50.858;4.392;2023-03-23T13:23:39;18.00;99.90
43679;DHT22;29279;50.858;4.392;2023-03-23T13:26:16;19.30;99.90
43679;DHT22;29279;50.858;4.392;2023-03-23T13:28:58;19.90;99.90
43679;DHT22;29279;50.858;4.392;2023-03-23T13:31:35;19.50;99.90
43679;DHT22;29279;50.858;4.392;2023-03-23T13:34:17;18.60;99.90
43679;DHT22;29279;50.858;4.392;2023-03-23T13:39:35;20.50;99.90
43679;DHT22;29279;50.858;4.392;2023-03-23T13:42:04;21.60;99.90
43679;DHT22;29279;50.858;4.392;2023-03-23T13:50:08;17.80;99.90
43679;DHT22;29279;50.858;4.392;2023-03-23T14:05:40;15.80;99.90
43679;DHT22;29279;50.858;4.392;2023-03-23T14:11:00;14.90;99.90
43679;DHT22;29279;50.858;4.392;2023-03-23T14:16:28;14.80;99.90
43679;DHT22;29279;50.858;4.392;2023-03-23T14:18:59;14.90;99.90
43679;DHT22;29279;50.858;4.392;2023-03-23T14:21:35;16.20;99.90
43679;DHT22;29279;50.858;4.392;2023-03-23T14:24:23;17.10;99.90
43679;DHT22;29279;50.858;4.392;2023-03-23T14:26:50;17.30;99.90
43679;DHT22;29279;50.858;4.392;2023-03-23T14:29:20;18.60;99.90
43679;DHT22;29279;50.858;4.392;2023-03-23T14:31:52;18.00;99.90
43679;DHT22;29279;50.858;4.392;2023-03-23T14:34:19;17.40;99.90
43679;DHT22;29279;50.858;4.392;2023-03-23T14:36:45;17.00;99.90
43679;DHT22;29279;50.858;4.392;2023-03-23T14:41:46;16.30;99.90
43679;DHT22;29279;50.858;4.392;2023-03-23T14:44:18;16.30;99.90
43679;DHT22;29279;50.858;4.392;2023-03-23T14:46:46;15.80;99.90
43679;DHT22;29279;50.858;4.392;2023-03-23T14:49:19;15.40;99.90
43679;DHT22;29279;50.858;4.392;2023-03-23T14:51:49;15.30;99.90
43679;DHT22;29279;50.858;4.392;2023-03-23T14:54:15;15.20;99.90
43679;DHT22;29279;50.858;4.392;2023-03-23T14:56:41;15.30;99.90
43679;DHT22;29279;50.858;4.392;2023-03-23T14:59:10;15.40;99.90
43679;DHT22;29279;50.858;4.392;2023-03-23T15:01:37;16.00;99.90
43679;DHT22;29279;50.858;4.392;2023-03-23T15:04:17;16.60;99.90
43679;DHT22;29279;50.858;4.392;2023-03-23T15:06:51;17.10;99.90
43679;DHT22;29279;50.858;4.392;2023-03-23T15:09:20;17.40;99.90
43679;DHT22;29279;50.858;4.392;2023-03-23T15:11:53;17.40;99.90
43679;DHT22;29279;50.858;4.392;2023-03-23T15:14:30;17.10;99.90
43679;DHT22;29279;50.858;4.392;2023-03-23T15:16:59;17.00;99.90
43679;DHT22;29279;50.858;4.392;2023-03-23T15:19:44;17.00;99.90
43679;DHT22;29279;50.858;4.392;2023-03-23T15:22:26;17.20;99.90
43679;DHT22;29279;50.858;4.392;2023-03-23T15:25:10;17.10;99.90
43679;DHT22;29279;50.858;4.392;2023-03-23T15:27:42;16.70;99.90
43679;DHT22;29279;50.858;4.392;2023-03-23T15:32:52;16.60;99.90
43679;DHT22;29279;50.858;4.392;2023-03-23T15:35:23;16.50;99.90
43679;DHT22;29279;50.858;4.392;2023-03-23T15:37:52;16.70;99.90
43679;DHT22;29279;50.858;4.392;2023-03-23T15:40:22;16.60;99.90
43679;DHT22;29279;50.858;4.392;2023-03-23T15:42:48;16.50;99.90
43679;DHT22;29279;50.858;4.392;2023-03-23T15:45:26;16.30;99.90
43679;DHT22;29279;50.858;4.392;2023-03-23T15:47:53;16.10;99.90
43679;DHT22;29279;50.858;4.392;2023-03-23T15:50:39;16.00;99.90
43679;DHT22;29279;50.858;4.392;2023-03-23T15:55:47;15.50;99.90
43679;DHT22;29279;50.858;4.392;2023-03-23T15:58:13;15.50;99.90
43679;DHT22;29279;50.858;4.392;2023-03-23T16:00:40;15.70;99.90
43679;DHT22;29279;50.858;4.392;2023-03-23T16:03:11;15.70;99.90
43679;DHT22;29279;50.858;4.392;2023-03-23T16:05:38;15.80;99.90
43679;DHT22;29279;50.858;4.392;2023-03-23T16:08:04;15.90;99.90
43679;DHT22;29279;50.858;4.392;2023-03-23T16:10:30;16.10;99.90
43679;DHT22;29279;50.858;4.392;2023-03-23T16:12:56;16.10;99.90
43679;DHT22;29279;50.858;4.392;2023-03-23T16:15:21;15.90;99.90
43679;DHT22;29279;50.858;4.392;2023-03-23T16:17:47;15.80;99.90
43679;DHT22;29279;50.858;4.392;2023-03-23T16:20:15;15.80;99.90
43679;DHT22;29279;50.858;4.392;2023-03-23T16:22:41;15.80;99.90
43679;DHT22;29279;50.858;4.392;2023-03-23T16:25:09;15.80;99.90
43679;DHT22;29279;50.858;4.392;2023-03-23T16:27:36;15.90;99.90
43679;DHT22;29279;50.858;4.392;2023-03-23T16:30:13;16.00;99.90
43679;DHT22;29279;50.858;4.392;2023-03-23T16:32:40;16.30;99.90
43679;DHT22;29279;50.858;4.392;2023-03-23T16:35:06;16.40;99.90
43679;DHT22;29279;50.858;4.392;2023-03-23T16:37:32;16.50;99.90
43679;DHT22;29279;50.858;4.392;2023-03-23T16:39:59;16.50;99.90
43679;DHT22;29279;50.858;4.392;2023-03-23T16:42:25;16.50;99.90
43679;DHT22;29279;50.858;4.392;2023-03-23T16:44:51;16.30;99.90
43679;DHT22;29279;50.858;4.392;2023-03-23T16:47:19;16.20;99.90
43679;DHT22;29279;50.858;4.392;2023-03-23T16:49:48;15.90;99.90
43679;DHT22;29279;50.858;4.392;2023-03-23T16:52:15;15.90;99.90
43679;DHT22;29279;50.858;4.392;2023-03-23T16:54:41;15.80;99.90
43679;DHT22;29279;50.858;4.392;2023-03-23T16:57:06;15.80;99.90
43679;DHT22;29279;50.858;4.392;2023-03-23T16:59:32;15.80;99.90
43679;DHT22;29279;50.858;4.392;2023-03-23T17:01:58;15.90;99.90
43679;DHT22;29279;50.858;4.392;2023-03-23T17:04:28;15.70;99.90
43679;DHT22;29279;50.858;4.392;2023-03-23T17:06:54;15.70;99.90
43679;DHT22;29279;50.858;4.392;2023-03-23T17:09:20;15.60;99.90
43679;DHT22;29279;50.858;4.392;2023-03-23T17:11:45;15.60;99.90
43679;DHT22;29279;50.858;4.392;2023-03-23T17:14:11;15.50;99.90
43679;DHT22;29279;50.858;4.392;2023-03-23T17:16:37;15.50;99.90
43679;DHT22;29279;50.858;4.392;2023-03-23T17:19:04;15.50;99.90
43679;DHT22;29279;50.858;4.392;2023-03-23T17:21:31;15.50;99.90
43679;DHT22;29279;50.858;4.392;2023-03-23T17:23:57;15.50;99.90
43679;DHT22;29279;50.858;4.392;2023-03-23T17:26:23;15.40;99.90
43679;DHT22;29279;50.858;4.392;2023-03-23T17:28:48;15.40;99.90
43679;DHT22;29279;50.858;4.392;2023-03-23T17:31:14;15.40;99.90
43679;DHT22;29279;50.858;4.392;2023-03-23T17:33:40;15.50;99.90
43679;DHT22;29279;50.858;4.392;2023-03-23T17:36:08;15.50;99.90
43679;DHT22;29279;50.858;4.392;2023-03-23T17:38:34;15.50;99.90
43679;DHT22;29279;50.858;4.392;2023-03-23T17:41:00;15.40;99.90
43679;DHT22;29279;50.858;4.392;2023-03-23T17:43:28;15.40;99.90
43679;DHT22;29279;50.858;4.392;2023-03-23T17:45:54;15.50;99.90
43679;DHT22;29279;50.858;4.392;2023-03-23T17:48:20;15.40;99.90